sensor_id;sensor_type;location;lat;lon;timestamp;P1;durP1;ratioP1;P2;durP2;ratioP2
3781;SDS011;6881;49.962;7.718;2023-02-05T00:01:27;10.93;;;9.53;;
3781;SDS011;6881;49.962;7.718;2023-02-05T00:03:52;18.20;;;10.70;;
3781;SDS011;6881;49.962;7.718;2023-02-05T00:06:18;18.73;;;10.27;;
3781;SDS011;6881;49.962;7.718;2023-02-05T00:08:43;16.50;;;9.77;;
3781;SDS011;6881;49.962;7.718;2023-02-05T00:11:08;15.23;;;8.03;;
3781;SDS011;6881;49.962;7.718;2023-02-05T00:13:37;21.80;;;9.73;;
3781;SDS011;6881;49.962;7.718;2023-02-05T00:16:11;9.60;;;8.07;;
3781;SDS011;6881;49.962;7.718;2023-02-05T00:18:38;23.23;;;9.20;;
3781;SDS011;6881;49.962;7.718;2023-02-05T00:21:04;17.53;;;9.47;;
3781;SDS011;6881;49.962;7.718;2023-02-05T00:23:30;9.90;;;7.83;;
3781;SDS011;6881;49.962;7.718;2023-02-05T00:25:55;7.80;;;6.10;;
3781;SDS011;6881;49.962;7.718;2023-02-05T00:28:21;8.70;;;6.10;;
3781;SDS011;6881;49.962;7.718;2023-02-05T00:30:46;13.90;;;7.10;;
3781;SDS011;6881;49.962;7.718;2023-02-05T00:33:12;9.57;;;5.97;;
3781;SDS011;6881;49.962;7.718;2023-02-05T00:35:37;14.43;;;5.87;;
3781;SDS011;6881;49.962;7.718;2023-02-05T00:38:03;9.00;;;5.90;;
3781;SDS011;6881;49.962;7.718;2023-02-05T00:40:28;8.27;;;5.40;;
3781;SDS011;6881;49.962;7.718;2023-02-05T00:42:54;7.07;;;5.20;;
3781;SDS011;6881;49.962;7.718;2023-02-05T00:45:19;8.20;;;5.37;;
3781;SDS011;6881;49.962;7.718;2023-02-05T00:47:44;11.53;;;5.03;;
3781;SDS011;6881;49.962;7.718;2023-02-05T00:50:10;7.80;;;5.50;;
3781;SDS011;6881;49.962;7.718;2023-02-05T00:52:35;23.00;;;12.67;;
3781;SDS011;6881;49.962;7.718;2023-02-05T00:55:00;23.97;;;11.80;;
3781;SDS011;6881;49.962;7.718;2023-02-05T00:57:26;14.40;;;7.80;;
3781;SDS011;6881;49.962;7.718;2023-02-05T00:59:51;8.60;;;6.97;;
3781;SDS011;6881;49.962;7.718;2023-02-05T01:02:19;13.90;;;6.87;;
3781;SDS011;6881;49.962;7.718;2023-02-05T01:04:48;6.80;;;5.60;;
3781;SDS011;6881;49.962;7.718;2023-02-05T01:07:14;7.03;;;4.73;;
3781;SDS011;6881;49.962;7.718;2023-02-05T01:09:40;8.27;;;4.77;;
3781;SDS011;6881;49.962;7.718;2023-02-05T01:12:05;7.93;;;4.90;;
3781;SDS011;6881;49.962;7.718;2023-02-05T01:14:30;7.80;;;4.90;;
3781;SDS011;6881;49.962;7.718;2023-02-05T01:16:56;8.50;;;4.60;;
3781;SDS011;6881;49.962;7.718;2023-02-05T01:19:21;6.93;;;4.40;;
3781;SDS011;6881;49.962;7.718;2023-02-05T01:21:46;6.27;;;3.80;;
3781;SDS011;6881;49.962;7.718;2023-02-05T01:24:12;10.60;;;4.03;;
3781;SDS011;6881;49.962;7.718;2023-02-05T01:26:37;8.30;;;4.30;;
3781;SDS011;6881;49.962;7.718;2023-02-05T01:29:02;9.90;;;4.80;;
3781;SDS011;6881;49.962;7.718;2023-02-05T01:31:28;5.80;;;4.20;;
3781;SDS011;6881;49.962;7.718;2023-02-05T01:33:53;9.60;;;4.40;;
3781;SDS011;6881;49.962;7.718;2023-02-05T01:36:19;9.77;;;3.90;;
3781;SDS011;6881;49.962;7.718;2023-02-05T01:38:44;8.70;;;4.53;;
3781;SDS011;6881;49.962;7.718;2023-02-05T01:41:11;12.17;;;4.40;;
3781;SDS011;6881;49.962;7.718;2023-02-05T01:43:37;6.23;;;4.10;;
3781;SDS011;6881;49.962;7.718;2023-02-05T01:46:04;6.90;;;4.63;;
3781;SDS011;6881;49.962;7.718;2023-02-05T01:48:37;8.57;;;4.20;;
3781;SDS011;6881;49.962;7.718;2023-02-05T01:51:05;8.93;;;4.90;;
3781;SDS011;6881;49.962;7.718;2023-02-05T01:53:33;10.70;;;4.00;;
3781;SDS011;6881;49.962;7.718;2023-02-05T01:56:00;9.80;;;4.97;;
3781;SDS011;6881;49.962;7.718;2023-02-05T01:58:31;7.03;;;4.70;;
3781;SDS011;6881;49.962;7.718;2023-02-05T02:00:59;10.60;;;5.40;;
3781;SDS011;6881;49.962;7.718;2023-02-05T02:03:24;12.73;;;5.07;;
3781;SDS011;6881;49.962;7.718;2023-02-05T02:05:52;30.17;;;13.50;;
3781;SDS011;6881;49.962;7.718;2023-02-05T02:08:18;23.57;;;10.77;;
3781;SDS011;6881;49.962;7.718;2023-02-05T02:10:43;13.90;;;7.27;;
3781;SDS011;6881;49.962;7.718;2023-02-05T02:13:09;7.37;;;4.60;;
3781;SDS011;6881;49.962;7.718;2023-02-05T02:15:35;5.93;;;4.30;;
3781;SDS011;6881;49.962;7.718;2023-02-05T02:18:01;8.60;;;4.77;;
3781;SDS011;6881;49.962;7.718;2023-02-05T02:20:52;8.33;;;4.60;;
3781;SDS011;6881;49.962;7.718;2023-02-05T02:26:52;8.97;;;4.80;;
3781;SDS011;6881;49.962;7.718;2023-02-05T02:29:37;7.00;;;3.97;;
3781;SDS011;6881;49.962;7.718;2023-02-05T02:32:30;15.73;;;4.70;;
3781;SDS011;6881;49.962;7.718;2023-02-05T02:35:42;9.17;;;4.20;;
3781;SDS011;6881;49.962;7.718;2023-02-05T02:38:05;8.90;;;4.40;;
3781;SDS011;6881;49.962;7.718;2023-02-05T02:40:53;7.53;;;4.40;;
3781;SDS011;6881;49.962;7.718;2023-02-05T02:46:24;11.00;;;4.60;;
3781;SDS011;6881;49.962;7.718;2023-02-05T02:48:51;17.63;;;5.40;;
3781;SDS011;6881;49.962;7.718;2023-02-05T02:51:19;14.50;;;5.70;;
3781;SDS011;6881;49.962;7.718;2023-02-05T02:53:47;13.17;;;6.47;;
3781;SDS011;6881;49.962;7.718;2023-02-05T02:56:14;11.37;;;5.27;;
3781;SDS011;6881;49.962;7.718;2023-02-05T02:59:02;15.80;;;6.03;;
3781;SDS011;6881;49.962;7.718;2023-02-05T03:01:28;10.40;;;6.70;;
3781;SDS011;6881;49.962;7.718;2023-02-05T03:03:57;10.83;;;6.50;;
3781;SDS011;6881;49.962;7.718;2023-02-05T03:06:24;8.90;;;5.53;;
3781;SDS011;6881;49.962;7.718;2023-02-05T03:09:00;11.40;;;5.73;;
3781;SDS011;6881;49.962;7.718;2023-02-05T03:11:30;9.50;;;6.80;;
3781;SDS011;6881;49.962;7.718;2023-02-05T03:13:55;15.43;;;7.07;;
3781;SDS011;6881;49.962;7.718;2023-02-05T03:16:21;11.50;;;5.93;;
3781;SDS011;6881;49.962;7.718;2023-02-05T03:18:48;13.93;;;5.60;;
3781;SDS011;6881;49.962;7.718;2023-02-05T03:21:19;12.83;;;7.00;;
3781;SDS011;6881;49.962;7.718;2023-02-05T03:23:50;11.10;;;6.20;;
3781;SDS011;6881;49.962;7.718;2023-02-05T03:26:22;19.13;;;6.80;;
3781;SDS011;6881;49.962;7.718;2023-02-05T03:28:48;12.03;;;6.00;;
3781;SDS011;6881;49.962;7.718;2023-02-05T03:31:16;11.97;;;6.13;;
3781;SDS011;6881;49.962;7.718;2023-02-05T03:36:15;17.10;;;5.80;;
3781;SDS011;6881;49.962;7.718;2023-02-05T03:39:27;10.13;;;6.77;;
3781;SDS011;6881;49.962;7.718;2023-02-05T03:41:39;12.83;;;7.60;;
3781;SDS011;6881;49.962;7.718;2023-02-05T03:47:31;14.90;;;6.70;;
3781;SDS011;6881;49.962;7.718;2023-02-05T03:52:50;9.80;;;6.57;;
3781;SDS011;6881;49.962;7.718;2023-02-05T03:55:26;10.40;;;6.73;;
3781;SDS011;6881;49.962;7.718;2023-02-05T04:00:22;14.93;;;6.17;;
3781;SDS011;6881;49.962;7.718;2023-02-05T04:02:48;10.60;;;7.10;;
3781;SDS011;6881;49.962;7.718;2023-02-05T04:05:13;12.57;;;6.90;;
3781;SDS011;6881;49.962;7.718;2023-02-05T04:07:39;12.53;;;7.43;;
3781;SDS011;6881;49.962;7.718;2023-02-05T04:10:04;13.97;;;6.87;;
3781;SDS011;6881;49.962;7.718;2023-02-05T04:12:30;14.20;;;6.60;;
3781;SDS011;6881;49.962;7.718;2023-02-05T04:14:55;9.37;;;6.17;;
3781;SDS011;6881;49.962;7.718;2023-02-05T04:17:20;16.83;;;7.70;;
3781;SDS011;6881;49.962;7.718;2023-02-05T04:19:46;7.27;;;6.27;;
3781;SDS011;6881;49.962;7.718;2023-02-05T04:22:11;7.20;;;5.93;;
3781;SDS011;6881;49.962;7.718;2023-02-05T04:24:36;11.90;;;7.37;;
3781;SDS011;6881;49.962;7.718;2023-02-05T04:27:02;9.37;;;5.73;;
3781;SDS011;6881;49.962;7.718;2023-02-05T04:29:27;9.13;;;5.60;;
3781;SDS011;6881;49.962;7.718;2023-02-05T04:31:53;16.73;;;5.93;;
3781;SDS011;6881;49.962;7.718;2023-02-05T04:34:18;9.07;;;5.60;;
3781;SDS011;6881;49.962;7.718;2023-02-05T04:36:44;9.10;;;5.40;;
3781;SDS011;6881;49.962;7.718;2023-02-05T04:39:09;9.53;;;6.60;;
3781;SDS011;6881;49.962;7.718;2023-02-05T04:41:35;9.50;;;5.30;;
3781;SDS011;6881;49.962;7.718;2023-02-05T04:44:00;11.63;;;6.43;;
3781;SDS011;6881;49.962;7.718;2023-02-05T04:46:25;12.47;;;6.23;;
3781;SDS011;6881;49.962;7.718;2023-02-05T04:48:51;10.90;;;6.07;;
3781;SDS011;6881;49.962;7.718;2023-02-05T04:51:16;7.43;;;5.93;;
3781;SDS011;6881;49.962;7.718;2023-02-05T04:53:41;12.60;;;8.07;;
3781;SDS011;6881;49.962;7.718;2023-02-05T04:56:08;12.00;;;6.30;;
3781;SDS011;6881;49.962;7.718;2023-02-05T04:58:35;15.07;;;8.13;;
3781;SDS011;6881;49.962;7.718;2023-02-05T05:01:00;11.27;;;7.63;;
3781;SDS011;6881;49.962;7.718;2023-02-05T05:03:26;13.53;;;7.10;;
3781;SDS011;6881;49.962;7.718;2023-02-05T05:05:51;17.63;;;7.70;;
3781;SDS011;6881;49.962;7.718;2023-02-05T05:08:16;12.80;;;7.70;;
3781;SDS011;6881;49.962;7.718;2023-02-05T05:10:43;10.40;;;7.63;;
3781;SDS011;6881;49.962;7.718;2023-02-05T05:13:08;14.30;;;7.30;;
3781;SDS011;6881;49.962;7.718;2023-02-05T05:15:33;13.53;;;7.37;;
3781;SDS011;6881;49.962;7.718;2023-02-05T05:17:59;12.40;;;8.03;;
3781;SDS011;6881;49.962;7.718;2023-02-05T05:20:24;13.40;;;8.00;;
3781;SDS011;6881;49.962;7.718;2023-02-05T05:22:49;17.03;;;8.27;;
3781;SDS011;6881;49.962;7.718;2023-02-05T05:25:15;9.83;;;6.73;;
3781;SDS011;6881;49.962;7.718;2023-02-05T05:27:40;20.13;;;8.80;;
3781;SDS011;6881;49.962;7.718;2023-02-05T05:30:06;13.43;;;7.70;;
3781;SDS011;6881;49.962;7.718;2023-02-05T05:32:32;13.87;;;8.00;;
3781;SDS011;6881;49.962;7.718;2023-02-05T05:34:57;17.17;;;8.30;;
3781;SDS011;6881;49.962;7.718;2023-02-05T05:37:23;13.90;;;9.00;;
3781;SDS011;6881;49.962;7.718;2023-02-05T05:39:48;16.03;;;10.67;;
3781;SDS011;6881;49.962;7.718;2023-02-05T05:42:32;14.50;;;9.57;;
3781;SDS011;6881;49.962;7.718;2023-02-05T05:45:16;13.50;;;7.50;;
3781;SDS011;6881;49.962;7.718;2023-02-05T05:47:41;13.40;;;9.00;;
3781;SDS011;6881;49.962;7.718;2023-02-05T05:50:06;12.53;;;9.60;;
3781;SDS011;6881;49.962;7.718;2023-02-05T05:52:32;17.40;;;8.90;;
3781;SDS011;6881;49.962;7.718;2023-02-05T05:54:58;20.40;;;10.40;;
3781;SDS011;6881;49.962;7.718;2023-02-05T05:57:23;18.57;;;9.83;;
3781;SDS011;6881;49.962;7.718;2023-02-05T05:59:49;18.07;;;10.47;;
3781;SDS011;6881;49.962;7.718;2023-02-05T06:02:15;18.30;;;10.40;;
3781;SDS011;6881;49.962;7.718;2023-02-05T06:04:40;14.73;;;9.40;;
3781;SDS011;6881;49.962;7.718;2023-02-05T06:07:05;19.53;;;11.00;;
3781;SDS011;6881;49.962;7.718;2023-02-05T06:09:31;16.37;;;10.03;;
3781;SDS011;6881;49.962;7.718;2023-02-05T06:11:56;18.53;;;11.57;;
3781;SDS011;6881;49.962;7.718;2023-02-05T06:14:21;14.67;;;10.13;;
3781;SDS011;6881;49.962;7.718;2023-02-05T06:16:47;18.90;;;10.60;;
3781;SDS011;6881;49.962;7.718;2023-02-05T06:19:12;12.73;;;10.20;;
3781;SDS011;6881;49.962;7.718;2023-02-05T06:21:37;17.40;;;10.90;;
3781;SDS011;6881;49.962;7.718;2023-02-05T06:24:03;17.80;;;11.20;;
3781;SDS011;6881;49.962;7.718;2023-02-05T06:26:28;20.40;;;11.33;;
3781;SDS011;6881;49.962;7.718;2023-02-05T06:28:53;18.33;;;11.67;;
3781;SDS011;6881;49.962;7.718;2023-02-05T06:31:21;15.60;;;11.80;;
3781;SDS011;6881;49.962;7.718;2023-02-05T06:33:47;16.80;;;11.33;;
3781;SDS011;6881;49.962;7.718;2023-02-05T06:36:12;16.03;;;11.03;;
3781;SDS011;6881;49.962;7.718;2023-02-05T06:38:37;22.33;;;11.20;;
3781;SDS011;6881;49.962;7.718;2023-02-05T06:41:03;17.97;;;11.20;;
3781;SDS011;6881;49.962;7.718;2023-02-05T06:43:28;15.57;;;12.10;;
3781;SDS011;6881;49.962;7.718;2023-02-05T06:45:54;15.93;;;11.80;;
3781;SDS011;6881;49.962;7.718;2023-02-05T06:48:19;20.33;;;12.63;;
3781;SDS011;6881;49.962;7.718;2023-02-05T06:50:45;16.83;;;12.07;;
3781;SDS011;6881;49.962;7.718;2023-02-05T06:53:10;22.10;;;11.43;;
3781;SDS011;6881;49.962;7.718;2023-02-05T06:55:36;15.70;;;9.00;;
3781;SDS011;6881;49.962;7.718;2023-02-05T06:58:01;15.00;;;9.10;;
3781;SDS011;6881;49.962;7.718;2023-02-05T07:00:27;14.30;;;9.10;;
3781;SDS011;6881;49.962;7.718;2023-02-05T07:02:52;13.90;;;8.57;;
3781;SDS011;6881;49.962;7.718;2023-02-05T07:05:19;16.70;;;10.13;;
3781;SDS011;6881;49.962;7.718;2023-02-05T07:07:44;20.20;;;10.67;;
3781;SDS011;6881;49.962;7.718;2023-02-05T07:10:09;20.07;;;11.60;;
3781;SDS011;6881;49.962;7.718;2023-02-05T07:12:35;12.60;;;9.10;;
3781;SDS011;6881;49.962;7.718;2023-02-05T07:15:00;13.97;;;10.07;;
3781;SDS011;6881;49.962;7.718;2023-02-05T07:17:25;16.23;;;10.03;;
3781;SDS011;6881;49.962;7.718;2023-02-05T07:19:51;18.73;;;12.10;;
3781;SDS011;6881;49.962;7.718;2023-02-05T07:22:16;18.03;;;11.07;;
3781;SDS011;6881;49.962;7.718;2023-02-05T07:24:41;16.63;;;10.03;;
3781;SDS011;6881;49.962;7.718;2023-02-05T07:27:06;16.20;;;9.97;;
3781;SDS011;6881;49.962;7.718;2023-02-05T07:29:32;13.30;;;10.03;;
3781;SDS011;6881;49.962;7.718;2023-02-05T07:31:57;16.33;;;10.37;;
3781;SDS011;6881;49.962;7.718;2023-02-05T07:34:23;14.70;;;11.00;;
3781;SDS011;6881;49.962;7.718;2023-02-05T07:36:49;16.63;;;10.80;;
3781;SDS011;6881;49.962;7.718;2023-02-05T07:39:15;15.23;;;9.80;;
3781;SDS011;6881;49.962;7.718;2023-02-05T07:41:40;16.83;;;9.80;;
3781;SDS011;6881;49.962;7.718;2023-02-05T07:44:06;12.00;;;8.20;;
3781;SDS011;6881;49.962;7.718;2023-02-05T07:46:31;13.43;;;7.90;;
3781;SDS011;6881;49.962;7.718;2023-02-05T07:48:56;15.97;;;9.47;;
3781;SDS011;6881;49.962;7.718;2023-02-05T07:51:22;15.87;;;9.70;;
3781;SDS011;6881;49.962;7.718;2023-02-05T07:53:48;14.53;;;9.13;;
3781;SDS011;6881;49.962;7.718;2023-02-05T07:56:14;14.80;;;10.00;;
3781;SDS011;6881;49.962;7.718;2023-02-05T07:58:40;14.10;;;9.90;;
3781;SDS011;6881;49.962;7.718;2023-02-05T08:01:06;14.17;;;9.43;;
3781;SDS011;6881;49.962;7.718;2023-02-05T08:03:32;16.17;;;11.70;;
3781;SDS011;6881;49.962;7.718;2023-02-05T08:05:58;15.40;;;10.20;;
3781;SDS011;6881;49.962;7.718;2023-02-05T08:08:23;15.83;;;8.93;;
3781;SDS011;6881;49.962;7.718;2023-02-05T08:11:02;16.03;;;8.87;;
3781;SDS011;6881;49.962;7.718;2023-02-05T08:13:29;15.40;;;10.00;;
3781;SDS011;6881;49.962;7.718;2023-02-05T08:15:54;16.50;;;8.83;;
3781;SDS011;6881;49.962;7.718;2023-02-05T08:18:19;15.53;;;9.23;;
3781;SDS011;6881;49.962;7.718;2023-02-05T08:20:45;19.43;;;9.67;;
3781;SDS011;6881;49.962;7.718;2023-02-05T08:23:10;20.83;;;9.83;;
3781;SDS011;6881;49.962;7.718;2023-02-05T08:25:37;16.27;;;9.30;;
3781;SDS011;6881;49.962;7.718;2023-02-05T08:28:02;17.37;;;10.50;;
3781;SDS011;6881;49.962;7.718;2023-02-05T08:30:28;17.63;;;9.60;;
3781;SDS011;6881;49.962;7.718;2023-02-05T08:32:53;15.13;;;8.90;;
3781;SDS011;6881;49.962;7.718;2023-02-05T08:35:18;14.20;;;8.63;;
3781;SDS011;6881;49.962;7.718;2023-02-05T08:37:44;12.20;;;8.07;;
3781;SDS011;6881;49.962;7.718;2023-02-05T08:40:09;16.30;;;8.33;;
3781;SDS011;6881;49.962;7.718;2023-02-05T08:42:35;14.13;;;9.40;;
3781;SDS011;6881;49.962;7.718;2023-02-05T08:45:00;11.53;;;8.00;;
3781;SDS011;6881;49.962;7.718;2023-02-05T08:47:27;10.73;;;7.13;;
3781;SDS011;6881;49.962;7.718;2023-02-05T08:49:53;14.70;;;8.27;;
3781;SDS011;6881;49.962;7.718;2023-02-05T08:52:18;12.37;;;7.50;;
3781;SDS011;6881;49.962;7.718;2023-02-05T08:54:44;13.33;;;7.37;;
3781;SDS011;6881;49.962;7.718;2023-02-05T08:57:09;12.77;;;7.30;;
3781;SDS011;6881;49.962;7.718;2023-02-05T08:59:35;10.23;;;6.33;;
3781;SDS011;6881;49.962;7.718;2023-02-05T09:02:01;15.60;;;8.10;;
3781;SDS011;6881;49.962;7.718;2023-02-05T09:04:26;9.20;;;6.13;;
3781;SDS011;6881;49.962;7.718;2023-02-05T09:06:52;9.90;;;7.00;;
3781;SDS011;6881;49.962;7.718;2023-02-05T09:09:17;9.97;;;7.47;;
3781;SDS011;6881;49.962;7.718;2023-02-05T09:11:44;13.37;;;8.87;;
3781;SDS011;6881;49.962;7.718;2023-02-05T09:14:10;16.77;;;10.13;;
3781;SDS011;6881;49.962;7.718;2023-02-05T09:16:36;14.83;;;9.80;;
3781;SDS011;6881;49.962;7.718;2023-02-05T09:19:02;11.77;;;9.30;;
3781;SDS011;6881;49.962;7.718;2023-02-05T09:21:28;14.23;;;10.37;;
3781;SDS011;6881;49.962;7.718;2023-02-05T09:23:53;12.73;;;9.43;;
3781;SDS011;6881;49.962;7.718;2023-02-05T09:26:19;13.80;;;9.00;;
3781;SDS011;6881;49.962;7.718;2023-02-05T09:28:45;15.17;;;11.60;;
3781;SDS011;6881;49.962;7.718;2023-02-05T09:31:12;16.37;;;10.17;;
3781;SDS011;6881;49.962;7.718;2023-02-05T09:33:38;13.37;;;9.43;;
3781;SDS011;6881;49.962;7.718;2023-02-05T09:36:04;13.67;;;8.13;;
3781;SDS011;6881;49.962;7.718;2023-02-05T09:38:31;14.13;;;9.03;;
3781;SDS011;6881;49.962;7.718;2023-02-05T09:40:58;10.17;;;6.83;;
3781;SDS011;6881;49.962;7.718;2023-02-05T09:46:15;8.73;;;7.30;;
3781;SDS011;6881;49.962;7.718;2023-02-05T09:48:47;14.33;;;9.17;;
3781;SDS011;6881;49.962;7.718;2023-02-05T09:51:42;17.17;;;10.13;;
3781;SDS011;6881;49.962;7.718;2023-02-05T09:54:12;12.97;;;8.37;;
3781;SDS011;6881;49.962;7.718;2023-02-05T09:56:41;12.77;;;8.70;;
3781;SDS011;6881;49.962;7.718;2023-02-05T09:59:08;14.07;;;9.80;;
3781;SDS011;6881;49.962;7.718;2023-02-05T10:01:44;13.97;;;8.70;;
3781;SDS011;6881;49.962;7.718;2023-02-05T10:04:12;8.10;;;6.10;;
3781;SDS011;6881;49.962;7.718;2023-02-05T10:06:51;13.03;;;8.40;;
3781;SDS011;6881;49.962;7.718;2023-02-05T10:17:45;11.07;;;8.00;;
3781;SDS011;6881;49.962;7.718;2023-02-05T10:23:06;11.77;;;7.60;;
3781;SDS011;6881;49.962;7.718;2023-02-05T10:28:39;11.97;;;7.90;;
3781;SDS011;6881;49.962;7.718;2023-02-05T10:33:51;10.70;;;7.87;;
3781;SDS011;6881;49.962;7.718;2023-02-05T10:36:22;10.80;;;7.43;;
3781;SDS011;6881;49.962;7.718;2023-02-05T10:38:50;16.40;;;9.70;;
3781;SDS011;6881;49.962;7.718;2023-02-05T10:46:55;11.33;;;7.60;;
3781;SDS011;6881;49.962;7.718;2023-02-05T10:49:27;11.63;;;7.60;;
3781;SDS011;6881;49.962;7.718;2023-02-05T10:52:12;10.97;;;7.53;;
3781;SDS011;6881;49.962;7.718;2023-02-05T10:54:38;12.20;;;7.90;;
3781;SDS011;6881;49.962;7.718;2023-02-05T10:57:09;9.67;;;7.00;;
3781;SDS011;6881;49.962;7.718;2023-02-05T10:59:43;10.07;;;7.67;;
3781;SDS011;6881;49.962;7.718;2023-02-05T11:02:13;11.03;;;8.23;;
3781;SDS011;6881;49.962;7.718;2023-02-05T11:07:30;13.20;;;8.07;;
3781;SDS011;6881;49.962;7.718;2023-02-05T11:10:44;8.53;;;6.23;;
3781;SDS011;6881;49.962;7.718;2023-02-05T11:12:52;10.40;;;7.40;;
3781;SDS011;6881;49.962;7.718;2023-02-05T11:15:27;9.93;;;7.27;;
3781;SDS011;6881;49.962;7.718;2023-02-05T11:18:00;13.03;;;8.60;;
3781;SDS011;6881;49.962;7.718;2023-02-05T11:25:59;9.90;;;7.00;;
3781;SDS011;6881;49.962;7.718;2023-02-05T11:28:29;11.70;;;7.30;;
3781;SDS011;6881;49.962;7.718;2023-02-05T11:33:49;5.77;;;3.93;;
3781;SDS011;6881;49.962;7.718;2023-02-05T11:36:21;5.90;;;4.60;;
3781;SDS011;6881;49.962;7.718;2023-02-05T11:41:27;7.83;;;3.43;;
3781;SDS011;6881;49.962;7.718;2023-02-05T11:43:57;5.27;;;3.63;;
3781;SDS011;6881;49.962;7.718;2023-02-05T11:46:24;3.80;;;3.13;;
3781;SDS011;6881;49.962;7.718;2023-02-05T11:48:58;4.57;;;3.20;;
3781;SDS011;6881;49.962;7.718;2023-02-05T11:53:59;5.10;;;4.40;;
3781;SDS011;6881;49.962;7.718;2023-02-05T11:56:27;6.67;;;3.60;;
3781;SDS011;6881;49.962;7.718;2023-02-05T11:59:03;5.13;;;3.83;;
3781;SDS011;6881;49.962;7.718;2023-02-05T12:01:33;4.37;;;3.57;;
3781;SDS011;6881;49.962;7.718;2023-02-05T12:04:20;3.87;;;3.30;;
3781;SDS011;6881;49.962;7.718;2023-02-05T12:06:55;5.10;;;2.73;;
3781;SDS011;6881;49.962;7.718;2023-02-05T12:09:29;6.33;;;3.00;;
3781;SDS011;6881;49.962;7.718;2023-02-05T12:23:07;7.17;;;3.63;;
3781;SDS011;6881;49.962;7.718;2023-02-05T12:25:51;6.40;;;2.93;;
3781;SDS011;6881;49.962;7.718;2023-02-05T12:37:15;2.97;;;2.40;;
3781;SDS011;6881;49.962;7.718;2023-02-05T12:39:50;3.00;;;2.40;;
3781;SDS011;6881;49.962;7.718;2023-02-05T12:48:18;3.33;;;1.93;;
3781;SDS011;6881;49.962;7.718;2023-02-05T12:59:32;3.10;;;2.07;;
3781;SDS011;6881;49.962;7.718;2023-02-05T13:02:03;2.60;;;2.40;;
3781;SDS011;6881;49.962;7.718;2023-02-05T13:07:37;4.03;;;2.07;;
3781;SDS011;6881;49.962;7.718;2023-02-05T13:10:27;1.67;;;1.57;;
3781;SDS011;6881;49.962;7.718;2023-02-05T13:13:19;2.03;;;1.50;;
3781;SDS011;6881;49.962;7.718;2023-02-05T13:15:50;2.40;;;1.47;;
3781;SDS011;6881;49.962;7.718;2023-02-05T13:20:58;3.17;;;1.80;;
3781;SDS011;6881;49.962;7.718;2023-02-05T13:23:45;2.10;;;1.90;;
3781;SDS011;6881;49.962;7.718;2023-02-05T13:26:31;4.37;;;2.90;;
3781;SDS011;6881;49.962;7.718;2023-02-05T13:29:17;4.50;;;3.63;;
3781;SDS011;6881;49.962;7.718;2023-02-05T13:31:50;2.97;;;2.10;;
3781;SDS011;6881;49.962;7.718;2023-02-05T13:34:26;4.30;;;3.47;;
3781;SDS011;6881;49.962;7.718;2023-02-05T13:37:00;5.17;;;2.67;;
3781;SDS011;6881;49.962;7.718;2023-02-05T13:39:57;4.00;;;3.17;;
3781;SDS011;6881;49.962;7.718;2023-02-05T13:52:58;4.70;;;3.53;;
3781;SDS011;6881;49.962;7.718;2023-02-05T13:58:27;2.50;;;2.00;;
3781;SDS011;6881;49.962;7.718;2023-02-05T14:01:00;2.97;;;2.60;;
3781;SDS011;6881;49.962;7.718;2023-02-05T14:03:37;3.30;;;2.67;;
3781;SDS011;6881;49.962;7.718;2023-02-05T14:06:22;3.73;;;2.80;;
3781;SDS011;6881;49.962;7.718;2023-02-05T14:09:05;4.80;;;2.80;;
3781;SDS011;6881;49.962;7.718;2023-02-05T14:11:56;2.67;;;2.47;;
3781;SDS011;6881;49.962;7.718;2023-02-05T14:16:59;3.00;;;2.80;;
3781;SDS011;6881;49.962;7.718;2023-02-05T14:22:11;4.10;;;3.43;;
3781;SDS011;6881;49.962;7.718;2023-02-05T14:24:57;2.80;;;2.20;;
3781;SDS011;6881;49.962;7.718;2023-02-05T14:29:54;4.27;;;2.40;;
3781;SDS011;6881;49.962;7.718;2023-02-05T14:37:29;3.83;;;2.73;;
3781;SDS011;6881;49.962;7.718;2023-02-05T14:40:21;2.60;;;2.40;;
3781;SDS011;6881;49.962;7.718;2023-02-05T14:43:11;2.23;;;2.00;;
3781;SDS011;6881;49.962;7.718;2023-02-05T14:45:45;3.30;;;2.23;;
3781;SDS011;6881;49.962;7.718;2023-02-05T14:48:19;2.50;;;2.20;;
3781;SDS011;6881;49.962;7.718;2023-02-05T14:50:59;2.73;;;2.00;;
3781;SDS011;6881;49.962;7.718;2023-02-05T14:53:28;2.37;;;1.90;;
3781;SDS011;6881;49.962;7.718;2023-02-05T14:55:54;3.57;;;1.60;;
3781;SDS011;6881;49.962;7.718;2023-02-05T15:00:51;3.37;;;2.50;;
3781;SDS011;6881;49.962;7.718;2023-02-05T15:03:56;3.67;;;1.47;;
3781;SDS011;6881;49.962;7.718;2023-02-05T15:06:22;3.80;;;3.40;;
3781;SDS011;6881;49.962;7.718;2023-02-05T15:08:51;4.27;;;3.77;;
3781;SDS011;6881;49.962;7.718;2023-02-05T15:19:29;2.60;;;2.40;;
3781;SDS011;6881;49.962;7.718;2023-02-05T15:21:56;2.50;;;2.13;;
3781;SDS011;6881;49.962;7.718;2023-02-05T15:24:22;2.80;;;2.47;;
3781;SDS011;6881;49.962;7.718;2023-02-05T15:26:49;5.27;;;4.50;;
3781;SDS011;6881;49.962;7.718;2023-02-05T15:29:21;3.80;;;2.80;;
3781;SDS011;6881;49.962;7.718;2023-02-05T15:31:56;4.53;;;3.90;;
3781;SDS011;6881;49.962;7.718;2023-02-05T15:34:35;3.90;;;3.10;;
3781;SDS011;6881;49.962;7.718;2023-02-05T15:42:08;2.20;;;2.10;;
3781;SDS011;6881;49.962;7.718;2023-02-05T15:44:35;3.70;;;3.00;;
3781;SDS011;6881;49.962;7.718;2023-02-05T15:47:01;5.27;;;3.00;;
3781;SDS011;6881;49.962;7.718;2023-02-05T15:49:30;3.60;;;3.30;;
3781;SDS011;6881;49.962;7.718;2023-02-05T15:51:59;2.50;;;2.30;;
3781;SDS011;6881;49.962;7.718;2023-02-05T15:54:24;2.83;;;2.63;;
3781;SDS011;6881;49.962;7.718;2023-02-05T15:56:50;3.30;;;2.27;;
3781;SDS011;6881;49.962;7.718;2023-02-05T15:59:24;2.90;;;2.60;;
3781;SDS011;6881;49.962;7.718;2023-02-05T16:02:01;5.47;;;2.40;;
3781;SDS011;6881;49.962;7.718;2023-02-05T16:06:58;2.97;;;2.30;;
3781;SDS011;6881;49.962;7.718;2023-02-05T16:09:24;2.43;;;2.23;;
3781;SDS011;6881;49.962;7.718;2023-02-05T16:11:51;2.40;;;1.87;;
3781;SDS011;6881;49.962;7.718;2023-02-05T16:14:17;2.03;;;1.90;;
3781;SDS011;6881;49.962;7.718;2023-02-05T16:16:58;3.13;;;2.33;;
3781;SDS011;6881;49.962;7.718;2023-02-05T16:22:47;3.37;;;2.80;;
3781;SDS011;6881;49.962;7.718;2023-02-05T16:27:48;3.00;;;2.70;;
3781;SDS011;6881;49.962;7.718;2023-02-05T16:30:18;1.93;;;1.50;;
3781;SDS011;6881;49.962;7.718;2023-02-05T16:32:54;3.17;;;2.50;;
3781;SDS011;6881;49.962;7.718;2023-02-05T16:35:23;3.87;;;2.80;;
3781;SDS011;6881;49.962;7.718;2023-02-05T16:37:54;2.30;;;2.10;;
3781;SDS011;6881;49.962;7.718;2023-02-05T16:40:27;3.10;;;2.57;;
3781;SDS011;6881;49.962;7.718;2023-02-05T16:42:54;4.43;;;3.80;;
3781;SDS011;6881;49.962;7.718;2023-02-05T16:45:23;3.83;;;3.50;;
3781;SDS011;6881;49.962;7.718;2023-02-05T16:50:46;3.10;;;2.27;;
3781;SDS011;6881;49.962;7.718;2023-02-05T16:53:22;3.37;;;2.87;;
3781;SDS011;6881;49.962;7.718;2023-02-05T16:55:49;5.13;;;2.83;;
3781;SDS011;6881;49.962;7.718;2023-02-05T16:58:21;3.40;;;3.10;;
3781;SDS011;6881;49.962;7.718;2023-02-05T17:00:57;3.73;;;3.40;;
3781;SDS011;6881;49.962;7.718;2023-02-05T17:03:24;2.97;;;2.30;;
3781;SDS011;6881;49.962;7.718;2023-02-05T17:05:57;4.53;;;3.90;;
3781;SDS011;6881;49.962;7.718;2023-02-05T17:08:30;4.30;;;3.67;;
3781;SDS011;6881;49.962;7.718;2023-02-05T17:10:58;5.40;;;3.67;;
3781;SDS011;6881;49.962;7.718;2023-02-05T17:19:05;4.10;;;3.70;;
3781;SDS011;6881;49.962;7.718;2023-02-05T17:21:46;4.73;;;3.13;;
3781;SDS011;6881;49.962;7.718;2023-02-05T17:24:12;2.77;;;2.27;;
3781;SDS011;6881;49.962;7.718;2023-02-05T17:26:39;3.80;;;2.97;;
3781;SDS011;6881;49.962;7.718;2023-02-05T17:29:07;2.83;;;2.37;;
3781;SDS011;6881;49.962;7.718;2023-02-05T17:31:37;4.20;;;2.97;;
3781;SDS011;6881;49.962;7.718;2023-02-05T17:34:03;3.57;;;3.27;;
3781;SDS011;6881;49.962;7.718;2023-02-05T17:36:28;4.30;;;3.53;;
3781;SDS011;6881;49.962;7.718;2023-02-05T17:38:54;3.77;;;3.37;;
3781;SDS011;6881;49.962;7.718;2023-02-05T17:41:20;3.53;;;2.80;;
3781;SDS011;6881;49.962;7.718;2023-02-05T17:44:07;2.90;;;2.67;;
3781;SDS011;6881;49.962;7.718;2023-02-05T17:46:34;4.00;;;3.60;;
3781;SDS011;6881;49.962;7.718;2023-02-05T17:48:59;3.20;;;2.50;;
3781;SDS011;6881;49.962;7.718;2023-02-05T17:51:24;3.13;;;2.43;;
3781;SDS011;6881;49.962;7.718;2023-02-05T17:53:50;5.00;;;3.10;;
3781;SDS011;6881;49.962;7.718;2023-02-05T17:56:16;3.10;;;2.40;;